createdAt,value
2018-09-01T00:02:20.529Z,2.63
2018-09-01T00:04:49.030Z,2.30
2018-09-01T00:07:17.578Z,2.87
2018-09-01T00:09:46.329Z,2.80
2018-09-01T00:12:15.205Z,2.70
2018-09-01T00:14:43.682Z,2.27
2018-09-01T00:17:31.058Z,2.13
2018-09-01T00:20:01.408Z,1.63
2018-09-01T00:22:30.558Z,2.27
2018-09-01T00:24:59.046Z,2.20
2018-09-01T00:27:28.601Z,2.10
2018-09-01T00:29:57.106Z,2.30
2018-09-01T00:32:25.829Z,2.70
2018-09-01T00:34:54.316Z,2.80
2018-09-01T00:37:28.248Z,2.47
2018-09-01T00:39:56.718Z,1.97
2018-09-01T00:42:25.227Z,2.40
2018-09-01T00:44:53.879Z,2.50
2018-09-01T00:47:22.366Z,2.00
2018-09-01T00:49:51.803Z,2.53
2018-09-01T00:52:20.377Z,2.20
2018-09-01T00:54:48.969Z,2.20
2018-09-01T00:57:17.464Z,1.90
2018-09-01T00:59:46.146Z,2.23
2018-09-01T01:02:14.760Z,2.70
2018-09-01T01:04:43.282Z,2.17
2018-09-01T01:07:13.623Z,2.20
2018-09-01T01:09:42.631Z,2.53
2018-09-01T01:12:11.142Z,2.20
2018-09-01T01:14:39.863Z,2.27
2018-09-01T01:17:10.442Z,2.47
2018-09-01T01:19:39.964Z,3.40
2018-09-01T01:22:08.460Z,2.50
2018-09-01T01:24:36.924Z,2.60
2018-09-01T01:27:05.475Z,2.37
2018-09-01T01:29:33.960Z,2.57
2018-09-01T01:32:02.532Z,2.57
2018-09-01T01:34:31.024Z,2.50
2018-09-01T01:36:59.614Z,2.30
2018-09-01T01:39:28.107Z,2.77
2018-09-01T01:41:56.672Z,2.47
2018-09-01T01:44:25.239Z,2.27
2018-09-01T01:46:53.750Z,2.60
2018-09-01T01:49:22.241Z,2.37
2018-09-01T01:51:50.770Z,2.60
2018-09-01T01:54:19.286Z,3.20
2018-09-01T01:56:47.758Z,2.30
2018-09-01T01:59:16.283Z,2.40
2018-09-01T02:01:44.754Z,2.70
2018-09-01T02:04:13.257Z,2.30
2018-09-01T02:06:41.750Z,2.57
2018-09-01T02:09:10.254Z,2.37
2018-09-01T02:11:38.735Z,2.90
2018-09-01T02:14:07.307Z,2.10
2018-09-01T02:16:35.763Z,2.50
2018-09-01T02:19:04.280Z,2.80
2018-09-01T02:21:32.760Z,2.40
2018-09-01T02:24:01.258Z,2.63
2018-09-01T02:26:29.747Z,3.07
2018-09-01T02:28:58.430Z,2.70
2018-09-01T02:31:27.007Z,2.57
2018-09-01T02:33:55.523Z,2.30
2018-09-01T02:36:24.103Z,2.40
2018-09-01T02:38:52.705Z,2.90
2018-09-01T02:41:21.186Z,2.47
2018-09-01T02:43:49.707Z,2.33
2018-09-01T02:46:18.189Z,2.27
2018-09-01T02:48:46.942Z,2.40
2018-09-01T02:51:15.402Z,2.60
2018-09-01T02:53:43.951Z,2.50
2018-09-01T02:56:12.475Z,2.50
2018-09-01T02:58:40.952Z,2.70
2018-09-01T03:01:14.625Z,2.77
2018-09-01T03:03:43.079Z,2.50
2018-09-01T03:06:11.590Z,2.07
2018-09-01T03:08:40.070Z,2.37
2018-09-01T03:11:08.622Z,2.63
2018-09-01T03:13:37.738Z,2.73
2018-09-01T03:16:06.311Z,2.43
2018-09-01T03:18:34.794Z,2.37
2018-09-01T03:21:03.314Z,3.07
2018-09-01T03:23:31.784Z,2.33
2018-09-01T03:26:00.313Z,2.60
2018-09-01T03:28:28.834Z,2.50
2018-09-01T03:30:57.429Z,2.33
2018-09-01T03:33:26.001Z,3.07
2018-09-01T03:35:54.572Z,2.50
2018-09-01T03:38:23.225Z,3.10
2018-09-01T03:40:51.743Z,2.10
2018-09-01T03:43:20.223Z,2.20
2018-09-01T03:45:48.743Z,2.33
2018-09-01T03:48:17.283Z,2.77
2018-09-01T03:50:45.767Z,2.70
2018-09-01T03:53:14.330Z,3.00
2018-09-01T03:55:42.834Z,2.73
2018-09-01T03:58:11.383Z,2.30
2018-09-01T04:00:39.907Z,2.53
2018-09-01T04:03:08.454Z,2.20
2018-09-01T04:05:36.923Z,2.73
2018-09-01T04:08:05.826Z,2.70
2018-09-01T04:10:34.306Z,3.00
2018-09-01T04:13:04.140Z,2.93
2018-09-01T04:15:32.655Z,3.20
2018-09-01T04:18:01.185Z,3.13
2018-09-01T04:20:29.671Z,2.97
2018-09-01T04:22:58.190Z,2.40
2018-09-01T04:25:26.669Z,3.17
2018-09-01T04:27:55.169Z,2.80
2018-09-01T04:30:23.644Z,2.40
2018-09-01T04:32:52.432Z,2.90
2018-09-01T04:35:20.930Z,2.80
2018-09-01T04:37:49.498Z,3.07
2018-09-01T04:40:18.125Z,2.63
2018-09-01T04:42:46.664Z,2.50
2018-09-01T04:45:15.154Z,2.67
2018-09-01T04:47:43.786Z,2.77
2018-09-01T04:50:12.306Z,2.60
2018-09-01T04:52:40.848Z,2.90
2018-09-01T04:55:09.483Z,3.40
2018-09-01T04:57:38.040Z,3.23
2018-09-01T05:00:06.570Z,2.60
2018-09-01T05:02:35.135Z,3.17
2018-09-01T05:05:04.590Z,3.10
2018-09-01T05:07:33.117Z,2.97
2018-09-01T05:10:01.607Z,3.07
2018-09-01T05:12:30.431Z,3.53
2018-09-01T05:14:59.030Z,2.70
2018-09-01T05:17:27.558Z,3.37
2018-09-01T05:19:56.072Z,3.27
2018-09-01T05:22:24.597Z,3.13
2018-09-01T05:24:53.137Z,3.53
2018-09-01T05:27:21.638Z,2.27
2018-09-01T05:29:50.139Z,2.70
2018-09-01T05:32:18.836Z,2.97
2018-09-01T05:34:47.466Z,4.03
2018-09-01T05:37:16.175Z,3.13
2018-09-01T05:39:44.899Z,3.20
2018-09-01T05:42:13.581Z,2.73
2018-09-01T05:44:42.079Z,3.37
2018-09-01T05:47:10.635Z,4.37
2018-09-01T05:49:39.135Z,2.80
2018-09-01T05:52:08.020Z,3.03
2018-09-01T05:54:36.564Z,2.90
2018-09-01T05:57:05.127Z,3.20
2018-09-01T05:59:33.606Z,2.87
2018-09-01T06:02:02.766Z,3.37
2018-09-01T06:04:31.411Z,4.60
2018-09-01T06:07:00.108Z,3.30
2018-09-01T06:09:28.606Z,3.10
2018-09-01T06:11:57.166Z,3.20
2018-09-01T06:14:26.089Z,3.40
2018-09-01T06:16:54.613Z,4.37
2018-09-01T06:19:23.255Z,2.77
2018-09-01T06:21:51.713Z,3.23
2018-09-01T06:24:20.186Z,3.10
2018-09-01T06:26:48.862Z,3.60
2018-09-01T06:29:18.946Z,3.50
2018-09-01T06:31:50.943Z,3.57
2018-09-01T06:34:20.031Z,3.50
2018-09-01T06:36:48.721Z,3.67
2018-09-01T06:39:17.245Z,3.30
2018-09-01T06:41:45.795Z,3.40
2018-09-01T06:44:15.027Z,3.67
2018-09-01T06:46:44.377Z,3.20
2018-09-01T06:49:12.979Z,3.90
2018-09-01T06:51:41.575Z,2.90
2018-09-01T06:54:10.667Z,3.80
2018-09-01T06:56:39.382Z,3.83
2018-09-01T06:59:08.061Z,4.17
2018-09-01T07:01:36.610Z,3.70
2018-09-01T07:04:05.121Z,4.30
2018-09-01T07:06:33.707Z,3.70
2018-09-01T07:09:02.339Z,3.90
2018-09-01T07:11:30.932Z,3.40
2018-09-01T07:13:59.650Z,4.87
2018-09-01T07:16:28.183Z,3.70
2018-09-01T07:18:56.964Z,3.57
2018-09-01T07:21:25.483Z,4.13
2018-09-01T07:23:53.984Z,3.67
2018-09-01T07:26:22.568Z,3.63
2018-09-01T07:28:51.228Z,3.83
2018-09-01T07:31:20.289Z,4.23
2018-09-01T07:33:48.574Z,3.20
2018-09-01T07:36:17.207Z,3.77
2018-09-01T07:38:45.783Z,4.77
2018-09-01T07:41:14.738Z,4.00
2018-09-01T07:43:43.315Z,3.93
2018-09-01T07:46:11.890Z,3.80
2018-09-01T07:48:40.636Z,5.30
2018-09-01T07:51:09.893Z,3.30
2018-09-01T07:53:38.613Z,6.83
2018-09-01T07:56:07.641Z,4.40
2018-09-01T07:58:37.189Z,3.90
2018-09-01T08:01:06.024Z,3.70
2018-09-01T08:03:34.486Z,4.30
2018-09-01T08:06:03.506Z,4.40
2018-09-01T08:08:32.028Z,4.53
2018-09-01T08:11:00.570Z,4.07
2018-09-01T08:13:29.051Z,4.63
2018-09-01T08:15:57.598Z,4.07
2018-09-01T08:18:26.187Z,3.70
2018-09-01T08:20:54.712Z,4.07
2018-09-01T08:23:23.266Z,3.30
2018-09-01T08:25:52.080Z,3.90
2018-09-01T08:28:20.674Z,3.67
2018-09-01T08:30:49.441Z,3.53
2018-09-01T08:33:18.215Z,4.20
2018-09-01T08:35:47.040Z,3.40
2018-09-01T08:38:15.562Z,3.80
2018-09-01T08:40:44.102Z,3.50
2018-09-01T08:43:13.402Z,3.60
2018-09-01T08:45:41.951Z,3.97
2018-09-01T08:48:10.497Z,3.30
2018-09-01T08:50:39.090Z,3.80
2018-09-01T08:53:12.269Z,3.00
2018-09-01T08:55:41.207Z,3.80
2018-09-01T08:58:09.728Z,3.40
2018-09-01T09:00:38.756Z,3.13
2018-09-01T09:03:07.271Z,4.10
2018-09-01T09:05:38.932Z,6.20
2018-09-01T09:08:07.636Z,3.13
2018-09-01T09:10:36.196Z,2.50
2018-09-01T09:13:05.389Z,3.03
2018-09-01T09:15:33.919Z,4.10
2018-09-01T09:18:02.627Z,3.20
2018-09-01T09:20:31.147Z,3.47
2018-09-01T09:22:59.721Z,2.80
2018-09-01T09:25:28.238Z,2.53
2018-09-01T09:27:56.722Z,3.27
2018-09-01T09:30:25.458Z,3.10
2018-09-01T09:32:54.238Z,2.60
2018-09-01T09:35:22.755Z,2.20
2018-09-01T09:37:51.234Z,2.90
2018-09-01T09:40:20.012Z,3.13
2018-09-01T09:42:48.529Z,2.60
2018-09-01T09:45:17.691Z,2.30
2018-09-01T09:47:46.190Z,3.57
2018-09-01T09:50:14.732Z,2.33
2018-09-01T09:52:43.193Z,3.10
2018-09-01T09:55:11.705Z,2.97
2018-09-01T09:57:40.291Z,2.00
2018-09-01T10:00:09.957Z,2.90
2018-09-01T10:02:38.653Z,2.60
2018-09-01T10:05:07.820Z,2.60
2018-09-01T10:07:36.319Z,2.67
2018-09-01T10:10:05.145Z,2.00
2018-09-01T10:12:33.683Z,3.23
2018-09-01T10:15:02.243Z,2.83
2018-09-01T10:17:30.785Z,1.97
2018-09-01T10:19:59.394Z,2.30
2018-09-01T10:22:27.890Z,2.33
2018-09-01T10:24:56.860Z,3.10
2018-09-01T10:27:25.331Z,2.67
2018-09-01T10:29:53.881Z,2.80
2018-09-01T10:32:23.212Z,3.00
2018-09-01T10:34:51.872Z,3.70
2018-09-01T10:37:23.311Z,3.30
2018-09-01T10:39:51.878Z,2.10
2018-09-01T10:42:20.571Z,2.97
2018-09-01T10:44:49.159Z,2.73
2018-09-01T10:47:17.680Z,2.87
2018-09-01T10:49:49.464Z,3.43
2018-09-01T10:52:18.431Z,2.37
2018-09-01T10:54:47.451Z,2.63
2018-09-01T10:57:16.329Z,3.43
2018-09-01T10:59:44.930Z,2.83
2018-09-01T11:02:13.462Z,3.73
2018-09-01T11:04:41.978Z,3.07
2018-09-01T11:07:10.514Z,2.90
2018-09-01T11:09:39.055Z,3.90
2018-09-01T11:12:07.781Z,3.73
2018-09-01T11:14:36.302Z,3.03
2018-09-01T11:17:05.278Z,3.50
2018-09-01T11:19:34.201Z,2.83
2018-09-01T11:22:02.815Z,2.73
2018-09-01T11:24:31.314Z,3.90
2018-09-01T11:27:00.105Z,3.27
2018-09-01T11:29:29.228Z,3.23
2018-09-01T11:31:57.979Z,2.97
2018-09-01T11:34:26.892Z,3.00
2018-09-01T11:36:55.513Z,2.67
2018-09-01T11:39:23.992Z,2.87
2018-09-01T11:41:54.983Z,3.10
2018-09-01T11:44:23.492Z,2.77
2018-09-01T11:46:52.180Z,3.17
2018-09-01T11:49:21.390Z,2.77
2018-09-01T11:51:50.003Z,3.33
2018-09-01T11:54:18.973Z,3.30
2018-09-01T11:56:47.510Z,3.93
2018-09-01T11:59:16.055Z,3.20
2018-09-01T12:01:45.307Z,3.00
2018-09-01T12:04:13.808Z,2.73
2018-09-01T12:06:42.823Z,3.30
2018-09-01T12:09:11.651Z,2.90
2018-09-01T12:11:40.037Z,3.93
2018-09-01T12:14:08.659Z,3.57
2018-09-01T12:16:37.182Z,3.13
2018-09-01T12:19:06.084Z,2.83
2018-09-01T12:21:34.672Z,3.17
2018-09-01T12:24:03.411Z,3.70
2018-09-01T12:26:32.287Z,3.37
2018-09-01T12:29:00.798Z,2.77
2018-09-01T12:31:29.303Z,3.83
2018-09-01T12:33:58.954Z,2.37
2018-09-01T12:36:27.446Z,2.50
2018-09-01T12:38:56.014Z,3.33
2018-09-01T12:41:24.716Z,3.50
2018-09-01T12:43:53.282Z,3.10
2018-09-01T12:46:22.456Z,3.10
2018-09-01T12:48:51.091Z,2.87
2018-09-01T12:51:19.600Z,3.07
2018-09-01T12:53:48.173Z,3.63
2018-09-01T12:56:16.687Z,4.27
2018-09-01T12:58:45.241Z,3.50
2018-09-01T13:01:13.773Z,4.50
2018-09-01T13:03:42.309Z,3.63
2018-09-01T13:06:11.763Z,4.33
2018-09-01T13:08:40.902Z,4.63
2018-09-01T13:11:09.899Z,3.93
2018-09-01T13:13:38.565Z,4.03
2018-09-01T13:16:07.866Z,5.07
2018-09-01T13:18:36.879Z,4.67
2018-09-01T13:21:05.882Z,4.53
2018-09-01T13:23:34.430Z,3.93
2018-09-01T13:26:03.476Z,4.67
2018-09-01T13:28:32.006Z,4.00
2018-09-01T13:31:00.580Z,4.77
2018-09-01T13:33:29.283Z,4.40
2018-09-01T13:35:57.860Z,4.03
2018-09-01T13:38:26.491Z,4.70
2018-09-01T13:40:55.576Z,3.43
2018-09-01T13:43:24.409Z,4.50
2018-09-01T13:45:53.011Z,4.47
2018-09-01T13:48:21.593Z,3.97
2018-09-01T13:50:50.998Z,4.47
2018-09-01T13:53:19.542Z,4.23
2018-09-01T13:55:48.038Z,5.83
2018-09-01T13:58:16.585Z,5.10
2018-09-01T14:00:45.082Z,4.60
2018-09-01T14:03:13.608Z,6.60
2018-09-01T14:05:42.208Z,4.33
2018-09-01T14:08:10.772Z,6.20
2018-09-01T14:10:39.677Z,4.60
2018-09-01T14:13:08.847Z,5.00
2018-09-01T14:15:37.698Z,7.53
2018-09-01T14:18:06.446Z,4.80
2018-09-01T14:20:35.083Z,4.17
2018-09-01T14:23:03.602Z,4.67
2018-09-01T14:25:32.193Z,4.47
2018-09-01T14:28:02.148Z,5.43
2018-09-01T14:30:31.278Z,5.20
2018-09-01T14:33:00.031Z,6.00
2018-09-01T14:35:28.578Z,4.00
2018-09-01T14:37:57.110Z,5.40
2018-09-01T14:40:25.915Z,5.00
2018-09-01T14:42:54.731Z,4.67
2018-09-01T14:45:23.379Z,4.90
2018-09-01T14:47:52.200Z,4.13
2018-09-01T14:50:22.038Z,5.20
2018-09-01T14:52:50.574Z,4.63
2018-09-01T14:55:19.099Z,4.00
2018-09-01T14:57:47.578Z,4.70
2018-09-01T15:00:16.254Z,5.33
2018-09-01T15:02:44.750Z,4.50
2018-09-01T15:05:13.383Z,3.63
2018-09-01T15:07:41.902Z,5.30
2018-09-01T15:10:10.568Z,5.33
2018-09-01T15:12:39.139Z,5.43
2018-09-01T15:15:08.127Z,4.90
2018-09-01T15:17:36.662Z,5.30
2018-09-01T15:20:05.786Z,4.43
2018-09-01T15:22:34.521Z,4.43
2018-09-01T15:25:03.173Z,5.87
2018-09-01T15:27:32.519Z,4.40
2018-09-01T15:30:01.073Z,3.93
2018-09-01T15:32:30.023Z,4.00
2018-09-01T15:34:58.665Z,4.70
2018-09-01T15:37:27.236Z,4.60
2018-09-01T15:39:56.446Z,5.23
2018-09-01T15:42:26.335Z,4.80
2018-09-01T15:44:55.122Z,4.77
2018-09-01T15:47:23.641Z,5.57
2018-09-01T15:49:53.566Z,5.77
2018-09-01T15:52:22.081Z,6.60
2018-09-01T15:54:50.794Z,6.73
2018-09-01T15:57:19.508Z,7.00
2018-09-01T15:59:48.047Z,8.03
2018-09-01T16:02:16.555Z,9.30
2018-09-01T16:04:45.130Z,9.57
2018-09-01T16:07:13.949Z,10.30
2018-09-01T16:09:42.537Z,9.37
2018-09-01T16:12:11.050Z,11.67
2018-09-01T16:14:39.709Z,12.40
2018-09-01T16:17:08.269Z,14.87
2018-09-01T16:19:37.273Z,8.60
2018-09-01T16:22:05.906Z,8.20
2018-09-01T16:24:34.642Z,8.93
2018-09-01T16:27:03.689Z,7.97
2018-09-01T16:29:32.428Z,7.10
2018-09-01T16:32:01.837Z,8.70
2018-09-01T16:34:30.963Z,7.40
2018-09-01T16:36:59.566Z,6.43
2018-09-01T16:39:28.425Z,7.90
2018-09-01T16:41:57.176Z,8.80
2018-09-01T16:44:25.814Z,8.60
2018-09-01T16:46:54.584Z,13.10
2018-09-01T16:49:23.141Z,9.27
2018-09-01T16:51:52.263Z,7.13
2018-09-01T16:54:20.828Z,8.40
2018-09-01T16:56:49.380Z,6.97
2018-09-01T16:59:17.926Z,7.17
2018-09-01T17:01:46.772Z,6.97
2018-09-01T17:04:15.330Z,8.77
2018-09-01T17:06:43.843Z,7.30
2018-09-01T17:09:12.432Z,7.50
2018-09-01T17:11:40.980Z,6.97
2018-09-01T17:14:09.558Z,6.50
2018-09-01T17:16:38.184Z,6.13
2018-09-01T17:19:07.060Z,7.00
2018-09-01T17:21:35.602Z,6.40
2018-09-01T17:24:04.465Z,6.60
2018-09-01T17:26:32.973Z,7.20
2018-09-01T17:29:01.998Z,6.30
2018-09-01T17:31:30.936Z,9.00
2018-09-01T17:34:01.649Z,6.60
2018-09-01T17:36:31.109Z,6.00
2018-09-01T17:38:59.837Z,7.13
2018-09-01T17:41:28.618Z,5.77
2018-09-01T17:43:57.414Z,6.57
2018-09-01T17:46:26.227Z,4.80
2018-09-01T17:48:54.787Z,5.33
2018-09-01T17:51:23.395Z,5.50
2018-09-01T17:53:52.540Z,4.50
2018-09-01T17:56:21.350Z,3.90
2018-09-01T17:58:49.971Z,4.43
2018-09-01T18:01:19.929Z,4.00
2018-09-01T18:03:48.614Z,3.83
2018-09-01T18:06:17.182Z,4.07
2018-09-01T18:08:45.722Z,4.60
2018-09-01T18:11:14.371Z,4.87
2018-09-01T18:13:43.021Z,4.37
2018-09-01T18:16:11.635Z,5.20
2018-09-01T18:18:40.192Z,4.80
2018-09-01T18:21:08.821Z,5.07
2018-09-01T18:23:37.383Z,5.30
2018-09-01T18:26:05.895Z,6.13
2018-09-01T18:28:35.385Z,6.77
2018-09-01T18:31:05.357Z,6.00
2018-09-01T18:33:34.334Z,5.90
2018-09-01T18:36:02.978Z,6.70
2018-09-01T18:38:32.127Z,5.90
2018-09-01T18:41:00.683Z,6.80
2018-09-01T18:43:29.447Z,7.10
2018-09-01T18:45:58.245Z,7.43
2018-09-01T18:48:26.809Z,7.00
2018-09-01T18:50:55.461Z,7.00
2018-09-01T18:53:24.070Z,8.27
2018-09-01T18:55:52.620Z,8.10
2018-09-01T18:58:21.561Z,7.57
2018-09-01T19:00:50.302Z,7.93
2018-09-01T19:03:19.037Z,8.47
2018-09-01T19:05:47.650Z,8.30
2018-09-01T19:08:16.403Z,7.77
2018-09-01T19:10:44.912Z,7.40
2018-09-01T19:13:14.001Z,7.70
2018-09-01T19:15:42.591Z,8.87
2018-09-01T19:18:11.151Z,8.47
2018-09-01T19:20:39.706Z,9.07
2018-09-01T19:23:08.247Z,8.37
2018-09-01T19:25:36.775Z,9.60
2018-09-01T19:28:05.688Z,9.70
2018-09-01T19:30:34.210Z,8.67
2018-09-01T19:33:02.930Z,9.30
2018-09-01T19:35:32.203Z,9.53
2018-09-01T19:38:00.983Z,9.40
2018-09-01T19:40:29.543Z,10.37
2018-09-01T19:42:58.745Z,9.67
2018-09-01T19:45:27.455Z,9.50
2018-09-01T19:47:56.018Z,10.33
2018-09-01T19:50:24.568Z,9.27
2018-09-01T19:52:53.192Z,10.23
2018-09-01T19:55:22.132Z,10.33
2018-09-01T19:57:50.738Z,8.63
2018-09-01T20:00:19.353Z,9.13
2018-09-01T20:02:48.696Z,10.50
2018-09-01T20:05:17.290Z,9.80
2018-09-01T20:07:45.770Z,9.90
2018-09-01T20:10:15.409Z,9.67
2018-09-01T20:12:43.964Z,11.00
2018-09-01T20:15:12.681Z,10.73
2018-09-01T20:17:41.252Z,11.53
2018-09-01T20:20:10.370Z,11.23
2018-09-01T20:22:39.242Z,10.90
2018-09-01T20:25:07.785Z,11.10
2018-09-01T20:27:36.340Z,12.27
2018-09-01T20:30:05.522Z,11.93
2018-09-01T20:32:34.413Z,12.53
2018-09-01T20:35:08.791Z,13.70
2018-09-01T20:37:37.895Z,12.33
2018-09-01T20:40:07.431Z,13.40
2018-09-01T20:42:36.057Z,12.77
2018-09-01T20:45:05.041Z,13.00
2018-09-01T20:47:33.998Z,11.30
2018-09-01T20:50:02.537Z,10.83
2018-09-01T20:52:31.774Z,13.30
2018-09-01T20:55:00.401Z,12.33
2018-09-01T20:57:28.995Z,11.30
2018-09-01T20:59:57.630Z,14.70
2018-09-01T21:02:26.196Z,10.90
2018-09-01T21:04:54.805Z,13.47
2018-09-01T21:07:23.286Z,11.90
2018-09-01T21:09:52.192Z,12.53
2018-09-01T21:12:20.981Z,11.90
2018-09-01T21:14:51.623Z,11.90
2018-09-01T21:17:20.125Z,11.67
2018-09-01T21:19:49.329Z,12.60
2018-09-01T21:22:17.859Z,12.77
2018-09-01T21:24:46.460Z,12.77
2018-09-01T21:27:15.324Z,13.60
2018-09-01T21:29:44.227Z,12.70
2018-09-01T21:32:12.738Z,13.87
2018-09-01T21:34:41.557Z,13.53
2018-09-01T21:37:10.069Z,12.13
2018-09-01T21:39:38.591Z,14.03
2018-09-01T21:42:07.103Z,15.23
2018-09-01T21:44:35.866Z,15.27
2018-09-01T21:47:04.704Z,14.47
2018-09-01T21:49:33.248Z,13.30
2018-09-01T21:52:01.958Z,13.83
2018-09-01T21:54:30.586Z,14.97
2018-09-01T21:56:59.095Z,15.00
2018-09-01T21:59:27.682Z,17.17
2018-09-01T22:02:01.520Z,14.70
2018-09-01T22:04:34.262Z,12.93
2018-09-01T22:07:02.777Z,14.60
2018-09-01T22:09:31.350Z,12.60
2018-09-01T22:11:59.874Z,14.37
2018-09-01T22:14:28.391Z,13.67
2018-09-01T22:16:56.927Z,13.00
2018-09-01T22:19:25.436Z,13.57
2018-09-01T22:21:54.128Z,12.77
2018-09-01T22:24:22.655Z,13.07
2018-09-01T22:26:51.163Z,13.70
2018-09-01T22:29:19.783Z,13.40
2018-09-01T22:31:48.358Z,12.50
2018-09-01T22:34:16.926Z,12.60
2018-09-01T22:36:45.523Z,12.57
2018-09-01T22:39:14.110Z,14.60
2018-09-01T22:41:42.693Z,13.47
2018-09-01T22:44:11.200Z,11.97
2018-09-01T22:46:39.681Z,13.77
2018-09-01T22:49:08.232Z,13.03
2018-09-01T22:51:36.755Z,12.30
2018-09-01T22:54:05.396Z,13.00
2018-09-01T22:56:33.944Z,13.47
2018-09-01T22:59:02.531Z,13.47
2018-09-01T23:01:31.366Z,13.10
2018-09-01T23:03:59.896Z,12.03
2018-09-01T23:06:28.569Z,11.80
2018-09-01T23:08:57.071Z,12.33
2018-09-01T23:11:25.754Z,11.67
2018-09-01T23:13:54.778Z,11.43
2018-09-01T23:16:23.993Z,12.23
2018-09-01T23:18:52.548Z,12.33
2018-09-01T23:21:21.170Z,12.77
2018-09-01T23:23:49.891Z,11.63
2018-09-01T23:26:18.401Z,11.43
2018-09-01T23:28:47.515Z,11.10
2018-09-01T23:31:16.346Z,11.47
2018-09-01T23:33:44.874Z,11.40
2018-09-01T23:36:13.355Z,10.37
2018-09-01T23:38:41.894Z,13.10
2018-09-01T23:41:10.534Z,11.97
2018-09-01T23:43:39.037Z,12.80
2018-09-01T23:46:07.858Z,11.90
2018-09-01T23:48:36.475Z,11.83
2018-09-01T23:51:06.069Z,12.03
2018-09-01T23:53:34.666Z,12.03
2018-09-01T23:56:03.324Z,12.27
2018-09-01T23:58:31.877Z,12.93
